createdAt,value
2017-12-23T00:00:10.652Z,15.50
2017-12-23T00:02:38.145Z,13.65
2017-12-23T00:05:05.625Z,15.40
2017-12-23T00:07:33.930Z,14.15
2017-12-23T00:10:01.394Z,14.00
2017-12-23T00:12:28.836Z,14.40
2017-12-23T00:14:56.326Z,14.35
2017-12-23T00:17:23.778Z,14.20
2017-12-23T00:19:51.249Z,13.35
2017-12-23T00:22:18.693Z,15.70
2017-12-23T00:24:46.206Z,15.80
2017-12-23T00:27:13.656Z,14.20
2017-12-23T00:29:41.190Z,15.25
2017-12-23T00:32:08.611Z,21.02
2017-12-23T00:34:36.056Z,15.55
2017-12-23T00:37:03.540Z,15.18
2017-12-23T00:39:30.980Z,16.48
2017-12-23T00:41:58.433Z,16.55
2017-12-23T00:44:25.983Z,14.80
2017-12-23T00:46:53.422Z,14.77
2017-12-23T00:49:20.972Z,16.00
2017-12-23T00:51:48.424Z,15.50
2017-12-23T00:54:15.856Z,15.75
2017-12-23T00:56:43.308Z,17.15
2017-12-23T00:59:10.856Z,15.05
2017-12-23T01:01:38.387Z,15.80
2017-12-23T01:04:05.827Z,15.70
2017-12-23T01:06:33.384Z,15.60
2017-12-23T01:09:01.583Z,16.50
2017-12-23T01:11:29.036Z,16.20
2017-12-23T01:13:56.472Z,15.38
2017-12-23T01:16:23.924Z,16.60
2017-12-23T01:18:51.352Z,14.73
2017-12-23T01:21:18.825Z,16.33
2017-12-23T01:23:46.264Z,15.65
2017-12-23T01:26:13.749Z,15.48
2017-12-23T01:28:41.964Z,15.55
2017-12-23T01:31:09.408Z,15.70
2017-12-23T01:33:36.855Z,15.70
2017-12-23T01:36:04.296Z,15.07
2017-12-23T01:38:32.641Z,16.73
2017-12-23T01:41:00.069Z,15.60
2017-12-23T01:43:27.525Z,16.02
2017-12-23T01:45:54.952Z,14.73
2017-12-23T01:48:34.293Z,15.68
2017-12-23T01:51:01.743Z,15.73
2017-12-23T01:53:29.202Z,17.42
2017-12-23T01:55:56.620Z,16.45
2017-12-23T01:58:24.081Z,15.75
2017-12-23T02:00:51.518Z,16.70
2017-12-23T02:03:18.969Z,15.90
2017-12-23T02:05:46.415Z,17.50
2017-12-23T02:08:13.852Z,17.75
2017-12-23T02:10:41.297Z,16.80
2017-12-23T02:13:08.751Z,16.30
2017-12-23T02:15:36.200Z,15.23
2017-12-23T02:18:03.660Z,16.52
2017-12-23T02:20:31.116Z,15.25
2017-12-23T02:22:59.329Z,17.00
2017-12-23T02:25:27.952Z,16.55
2017-12-23T02:27:56.179Z,16.50
2017-12-23T02:30:23.697Z,15.57
2017-12-23T02:32:51.174Z,16.17
2017-12-23T02:35:18.620Z,15.60
2017-12-23T02:37:46.159Z,15.18
2017-12-23T02:40:13.840Z,17.37
2017-12-23T02:42:42.050Z,15.70
2017-12-23T02:45:09.528Z,16.87
2017-12-23T02:47:36.953Z,15.25
2017-12-23T02:50:04.404Z,16.67
2017-12-23T02:52:31.980Z,15.73
2017-12-23T02:54:59.348Z,14.80
2017-12-23T02:57:26.781Z,14.87
2017-12-23T02:59:54.231Z,14.68
2017-12-23T03:02:22.595Z,15.40
2017-12-23T03:04:50.192Z,14.05
2017-12-23T03:07:17.632Z,14.35
2017-12-23T03:09:45.080Z,14.68
2017-12-23T03:12:12.526Z,16.20
2017-12-23T03:14:39.956Z,15.55
2017-12-23T03:17:07.409Z,14.23
2017-12-23T03:19:34.853Z,15.10
2017-12-23T03:22:02.313Z,16.12
2017-12-23T03:24:29.744Z,16.00
2017-12-23T03:26:57.185Z,16.70
2017-12-23T03:29:25.384Z,16.05
2017-12-23T03:31:53.640Z,15.77
2017-12-23T03:34:21.089Z,17.30
2017-12-23T03:36:49.302Z,16.00
2017-12-23T03:39:16.740Z,16.90
2017-12-23T03:41:44.194Z,16.08
2017-12-23T03:44:11.650Z,16.37
2017-12-23T03:46:39.100Z,15.60
2017-12-23T03:49:06.560Z,15.73
2017-12-23T03:51:34.774Z,16.92
2017-12-23T03:54:02.216Z,16.37
2017-12-23T03:56:29.657Z,16.23
2017-12-23T03:58:57.088Z,16.08
2017-12-23T04:01:24.535Z,16.23
2017-12-23T04:03:52.015Z,15.32
2017-12-23T04:06:19.464Z,16.85
2017-12-23T04:08:46.931Z,15.57
2017-12-23T04:11:14.375Z,16.73
2017-12-23T04:13:42.588Z,15.32
2017-12-23T04:16:10.025Z,16.58
2017-12-23T04:18:37.488Z,15.40
2017-12-23T04:21:04.936Z,15.82
2017-12-23T04:23:32.382Z,15.25
2017-12-23T04:25:59.825Z,18.42
2017-12-23T04:28:27.267Z,17.80
2017-12-23T04:30:54.789Z,16.70
2017-12-23T04:33:22.337Z,16.85
2017-12-23T04:35:49.780Z,16.10
2017-12-23T04:38:17.224Z,17.25
2017-12-23T04:40:44.655Z,16.30
2017-12-23T04:43:12.104Z,16.85
2017-12-23T04:45:39.560Z,16.42
2017-12-23T04:48:07.053Z,18.45
2017-12-23T04:50:34.484Z,15.68
2017-12-23T04:53:02.013Z,17.52
2017-12-23T04:55:30.200Z,16.27
2017-12-23T04:57:57.643Z,16.92
2017-12-23T05:00:25.092Z,15.90
2017-12-23T05:02:52.574Z,17.77
2017-12-23T05:05:20.024Z,17.92
2017-12-23T05:07:47.494Z,16.52
2017-12-23T05:10:14.936Z,17.08
2017-12-23T05:12:42.381Z,16.48
2017-12-23T05:15:09.952Z,18.98
2017-12-23T05:17:37.372Z,16.80
2017-12-23T05:20:04.878Z,16.98
2017-12-23T05:22:32.383Z,18.35
2017-12-23T05:24:59.808Z,18.45
2017-12-23T05:27:27.245Z,17.70
2017-12-23T05:29:54.690Z,17.87
2017-12-23T05:32:22.119Z,18.33
2017-12-23T05:34:49.624Z,19.02
2017-12-23T05:37:17.072Z,18.98
2017-12-23T05:39:44.512Z,18.52
2017-12-23T05:42:11.957Z,19.15
2017-12-23T05:44:39.384Z,20.62
2017-12-23T05:47:06.904Z,19.27
2017-12-23T05:49:34.377Z,18.00
2017-12-23T05:52:01.880Z,18.17
2017-12-23T05:54:29.321Z,18.02
2017-12-23T05:56:56.781Z,18.42
2017-12-23T05:59:24.218Z,20.25
2017-12-23T06:01:52.552Z,20.75
2017-12-23T06:04:20.048Z,19.48
2017-12-23T06:06:47.500Z,19.48
2017-12-23T06:09:15.719Z,17.92
2017-12-23T06:11:43.151Z,19.90
2017-12-23T06:14:10.690Z,21.15
2017-12-23T06:16:38.132Z,20.33
2017-12-23T06:19:05.576Z,18.95
2017-12-23T06:21:33.031Z,19.80
2017-12-23T06:24:00.482Z,19.62
2017-12-23T06:26:27.941Z,20.62
2017-12-23T06:28:55.442Z,19.23
2017-12-23T06:31:22.825Z,19.17
2017-12-23T06:33:50.272Z,19.10
2017-12-23T06:36:17.720Z,18.95
2017-12-23T06:38:45.154Z,18.70
2017-12-23T06:41:12.601Z,18.58
2017-12-23T06:43:40.051Z,20.90
2017-12-23T06:46:08.241Z,19.65
2017-12-23T06:48:36.467Z,18.23
2017-12-23T06:51:03.922Z,19.25
2017-12-23T06:53:31.356Z,21.58
2017-12-23T06:55:58.800Z,19.85
2017-12-23T06:58:26.252Z,20.98
2017-12-23T07:00:53.688Z,19.80
2017-12-23T07:03:21.230Z,20.65
2017-12-23T07:05:48.679Z,20.02
2017-12-23T07:08:16.892Z,20.27
2017-12-23T07:10:44.334Z,19.58
2017-12-23T07:13:12.009Z,21.92
2017-12-23T07:15:39.483Z,20.20
2017-12-23T07:18:06.924Z,18.55
2017-12-23T07:20:34.376Z,19.73
2017-12-23T07:23:01.844Z,18.52
2017-12-23T07:25:29.324Z,17.67
2017-12-23T07:27:56.756Z,18.62
2017-12-23T07:30:24.189Z,18.25
2017-12-23T07:32:51.670Z,19.10
2017-12-23T07:35:19.870Z,18.40
2017-12-23T07:37:47.321Z,19.58
2017-12-23T07:40:14.776Z,20.10
2017-12-23T07:42:42.223Z,22.08
2017-12-23T07:45:09.700Z,21.60
2017-12-23T07:47:37.912Z,19.77
2017-12-23T07:50:05.348Z,18.17
2017-12-23T07:52:32.800Z,18.33
2017-12-23T07:55:00.249Z,17.87
2017-12-23T07:57:27.683Z,18.45
2017-12-23T07:59:55.145Z,18.70
2017-12-23T08:02:22.588Z,19.30
2017-12-23T08:04:50.038Z,18.98
2017-12-23T08:07:17.512Z,19.17
2017-12-23T08:09:44.984Z,17.25
2017-12-23T08:12:12.412Z,17.70
2017-12-23T08:14:39.864Z,19.73
2017-12-23T08:17:07.304Z,18.45
2017-12-23T08:19:34.796Z,18.45
2017-12-23T08:22:02.245Z,18.65
2017-12-23T08:24:29.703Z,18.85
2017-12-23T08:26:57.154Z,17.40
2017-12-23T08:29:24.608Z,17.08
2017-12-23T08:31:52.075Z,17.55
2017-12-23T08:34:19.622Z,16.65
2017-12-23T08:36:47.204Z,17.12
2017-12-23T08:39:14.666Z,17.65
2017-12-23T08:41:42.222Z,18.85
2017-12-23T08:44:09.661Z,17.85
2017-12-23T08:46:37.109Z,16.58
2017-12-23T08:49:04.544Z,18.48
2017-12-23T08:51:31.988Z,17.10
2017-12-23T08:53:59.453Z,19.05
2017-12-23T08:56:26.868Z,16.27
2017-12-23T08:58:54.348Z,17.08
2017-12-23T09:01:21.809Z,16.60
2017-12-23T09:03:49.248Z,16.33
2017-12-23T09:06:19.599Z,18.25
2017-12-23T09:08:47.226Z,18.08
2017-12-23T09:11:15.444Z,20.67
2017-12-23T09:13:42.910Z,17.75
2017-12-23T09:16:10.448Z,16.73
2017-12-23T09:18:37.919Z,16.17
2017-12-23T09:21:06.137Z,16.52
2017-12-23T09:23:33.608Z,18.10
2017-12-23T09:26:01.036Z,17.62
2017-12-23T09:28:28.576Z,17.35
2017-12-23T09:30:56.025Z,15.68
2017-12-23T09:33:23.469Z,16.60
2017-12-23T09:35:50.921Z,16.08
2017-12-23T09:38:18.368Z,17.33
2017-12-23T09:40:46.575Z,15.48
2017-12-23T09:43:14.131Z,16.62
2017-12-23T09:45:41.584Z,17.70
2017-12-23T09:48:09.027Z,16.95
2017-12-23T09:50:36.467Z,16.75
2017-12-23T09:53:03.943Z,17.23
2017-12-23T09:55:32.144Z,16.33
2017-12-23T09:57:59.641Z,17.70
2017-12-23T10:00:27.148Z,17.12
2017-12-23T10:02:54.716Z,16.25
2017-12-23T10:05:22.169Z,16.48
2017-12-23T10:07:49.717Z,17.45
2017-12-23T10:10:17.152Z,17.23
2017-12-23T10:12:44.604Z,16.30
2017-12-23T10:15:12.828Z,15.23
2017-12-23T10:17:41.164Z,15.85
2017-12-23T10:20:08.652Z,15.82
2017-12-23T10:22:36.096Z,15.85
2017-12-23T10:25:03.552Z,14.40
2017-12-23T10:27:31.760Z,16.83
2017-12-23T10:29:59.205Z,15.23
2017-12-23T10:32:26.636Z,17.58
2017-12-23T10:34:54.108Z,15.57
2017-12-23T10:37:21.584Z,14.70
2017-12-23T10:39:50.554Z,13.38
2017-12-23T10:42:17.991Z,14.05
2017-12-23T10:44:45.438Z,12.63
2017-12-23T10:47:12.956Z,12.40
2017-12-23T10:49:40.392Z,13.07
2017-12-23T10:52:07.840Z,13.43
2017-12-23T10:54:35.425Z,14.45
2017-12-23T10:57:02.860Z,13.02
2017-12-23T10:59:30.326Z,12.00
2017-12-23T11:01:58.560Z,12.70
2017-12-23T11:04:26.021Z,12.05
2017-12-23T11:06:54.224Z,11.23
2017-12-23T11:09:21.715Z,11.80
2017-12-23T11:11:49.155Z,12.30
2017-12-23T11:14:16.701Z,11.70
2017-12-23T11:16:44.151Z,10.38
2017-12-23T11:19:11.650Z,10.52
2017-12-23T11:21:39.124Z,11.93
2017-12-23T11:24:08.089Z,10.30
2017-12-23T11:26:35.550Z,11.07
2017-12-23T11:29:02.985Z,12.32
2017-12-23T11:31:30.438Z,10.68
2017-12-23T11:33:57.885Z,11.20
2017-12-23T11:36:25.384Z,9.70
2017-12-23T11:38:52.861Z,10.27
2017-12-23T11:41:20.412Z,9.23
2017-12-23T11:43:47.844Z,9.45
2017-12-23T11:46:15.288Z,9.18
2017-12-23T11:48:42.746Z,12.07
2017-12-23T11:51:10.244Z,10.95
2017-12-23T11:53:37.816Z,9.52
2017-12-23T11:56:05.290Z,9.75
2017-12-23T11:58:33.583Z,8.98
2017-12-23T12:01:01.074Z,9.40
2017-12-23T12:03:28.561Z,7.72
2017-12-23T12:05:56.062Z,8.38
2017-12-23T12:08:23.554Z,7.87
2017-12-23T12:10:51.116Z,9.05
2017-12-23T12:13:18.588Z,9.02
2017-12-23T12:15:46.029Z,8.95
2017-12-23T12:18:13.557Z,7.60
2017-12-23T12:20:41.020Z,8.90
2017-12-23T12:23:08.596Z,8.88
2017-12-23T12:25:36.937Z,9.23
2017-12-23T12:28:04.382Z,19.58
2017-12-23T12:30:31.921Z,8.77
2017-12-23T12:32:59.438Z,7.45
2017-12-23T12:35:26.872Z,9.40
2017-12-23T12:37:54.346Z,7.78
2017-12-23T12:40:21.793Z,7.93
2017-12-23T12:42:49.447Z,8.60
2017-12-23T12:45:16.911Z,6.68
2017-12-23T12:47:44.335Z,6.55
2017-12-23T12:50:11.773Z,6.25
2017-12-23T12:52:39.213Z,6.40
2017-12-23T12:55:06.652Z,7.18
2017-12-23T12:57:34.093Z,6.28
2017-12-23T13:00:01.536Z,5.78
2017-12-23T13:02:29.054Z,6.25
2017-12-23T13:04:56.496Z,7.05
2017-12-23T13:07:23.938Z,6.40
2017-12-23T13:09:51.394Z,6.90
2017-12-23T13:12:19.707Z,5.97
2017-12-23T13:14:47.156Z,5.72
2017-12-23T13:17:14.584Z,6.18
2017-12-23T13:19:42.152Z,7.43
2017-12-23T13:22:09.590Z,5.53
2017-12-23T13:24:38.149Z,5.45
2017-12-23T13:27:05.575Z,6.00
2017-12-23T13:29:33.012Z,6.03
2017-12-23T13:32:00.600Z,8.70
2017-12-23T13:34:28.032Z,5.75
2017-12-23T13:36:55.476Z,5.53
2017-12-23T13:39:22.914Z,6.53
2017-12-23T13:41:50.411Z,5.10
2017-12-23T13:44:18.612Z,5.55
2017-12-23T13:46:46.112Z,5.03
2017-12-23T13:49:13.737Z,5.00
2017-12-23T13:51:41.177Z,5.35
2017-12-23T13:54:08.712Z,4.50
2017-12-23T13:56:36.264Z,4.85
2017-12-23T13:59:03.969Z,5.45
2017-12-23T14:01:31.449Z,4.43
2017-12-23T14:03:58.900Z,5.25
2017-12-23T14:06:26.337Z,4.18
2017-12-23T14:08:53.851Z,5.00
2017-12-23T14:11:21.268Z,4.65
2017-12-23T14:13:48.728Z,5.18
2017-12-23T14:16:16.161Z,5.55
2017-12-23T14:18:43.605Z,5.00
2017-12-23T14:21:11.091Z,5.30
2017-12-23T14:23:39.331Z,6.30
2017-12-23T14:26:06.764Z,5.78
2017-12-23T14:28:34.212Z,5.70
2017-12-23T14:31:01.645Z,4.95
2017-12-23T14:33:29.146Z,5.82
2017-12-23T14:35:56.674Z,3.83
2017-12-23T14:38:24.144Z,5.30
2017-12-23T14:40:52.361Z,4.30
2017-12-23T14:43:19.955Z,6.15
2017-12-23T14:45:47.404Z,4.87
2017-12-23T14:48:14.888Z,3.72
2017-12-23T14:50:42.424Z,4.10
2017-12-23T14:53:09.868Z,3.97
2017-12-23T14:55:38.273Z,4.03
2017-12-23T14:58:05.810Z,4.62
2017-12-23T15:00:33.286Z,7.03
2017-12-23T15:03:01.472Z,11.63
2017-12-23T15:05:28.934Z,6.45
2017-12-23T15:07:56.406Z,5.80
2017-12-23T15:10:24.730Z,4.97
2017-12-23T15:12:52.202Z,4.15
2017-12-23T15:15:19.655Z,4.65
2017-12-23T15:17:47.081Z,4.00
2017-12-23T15:20:14.627Z,4.07
2017-12-23T15:22:42.057Z,4.87
2017-12-23T15:25:09.548Z,5.07
2017-12-23T15:27:37.777Z,4.97
2017-12-23T15:30:05.214Z,5.78
2017-12-23T15:32:32.661Z,6.15
2017-12-23T15:35:00.100Z,6.12
2017-12-23T15:37:27.568Z,6.60
2017-12-23T15:39:55.000Z,6.20
2017-12-23T15:42:22.441Z,7.28
2017-12-23T15:44:50.640Z,6.85
2017-12-23T15:47:18.075Z,7.32
2017-12-23T15:49:45.697Z,7.45
2017-12-23T15:52:13.255Z,6.93
2017-12-23T15:54:41.463Z,11.00
2017-12-23T15:57:08.940Z,7.85
2017-12-23T15:59:36.365Z,6.85
2017-12-23T16:02:03.833Z,7.25
2017-12-23T16:04:31.252Z,7.70
2017-12-23T16:06:58.696Z,8.20
2017-12-23T16:09:26.281Z,9.80
2017-12-23T16:11:53.748Z,9.15
2017-12-23T16:14:21.186Z,9.75
2017-12-23T16:16:48.629Z,9.10
2017-12-23T16:19:16.119Z,10.32
2017-12-23T16:21:44.456Z,8.85
2017-12-23T16:24:11.887Z,7.97
2017-12-23T16:26:39.410Z,7.93
2017-12-23T16:29:07.642Z,7.97
2017-12-23T16:31:35.075Z,10.00
2017-12-23T16:34:02.508Z,8.85
2017-12-23T16:36:30.033Z,8.50
2017-12-23T16:38:57.794Z,8.15
2017-12-23T16:41:25.289Z,8.15
2017-12-23T16:43:53.535Z,8.18
2017-12-23T16:46:21.030Z,7.22
2017-12-23T16:48:48.566Z,7.70
2017-12-23T16:51:16.185Z,7.90
2017-12-23T16:53:44.462Z,7.60
2017-12-23T16:56:11.945Z,7.85
2017-12-23T16:58:39.394Z,7.93
2017-12-23T17:01:06.847Z,7.28
2017-12-23T17:03:34.329Z,7.05
2017-12-23T17:06:01.789Z,7.80
2017-12-23T17:08:29.223Z,7.68
2017-12-23T17:10:56.812Z,8.73
2017-12-23T17:13:24.246Z,7.70
2017-12-23T17:15:51.684Z,7.55
2017-12-23T17:18:19.195Z,8.98
2017-12-23T17:20:46.731Z,13.25
2017-12-23T17:23:14.936Z,9.30
2017-12-23T17:25:42.439Z,8.32
2017-12-23T17:28:16.550Z,8.32
2017-12-23T17:30:44.060Z,7.43
2017-12-23T17:33:12.280Z,8.57
2017-12-23T17:35:40.740Z,7.90
2017-12-23T17:38:08.218Z,9.13
2017-12-23T17:40:35.644Z,8.00
2017-12-23T17:43:03.137Z,7.70
2017-12-23T17:45:30.597Z,8.05
2017-12-23T17:47:58.084Z,9.23
2017-12-23T17:50:25.611Z,8.60
2017-12-23T17:52:53.056Z,7.47
2017-12-23T17:55:20.516Z,7.03
2017-12-23T17:57:48.009Z,7.80
2017-12-23T18:00:15.542Z,8.07
2017-12-23T18:02:43.079Z,8.18
2017-12-23T18:05:10.563Z,8.60
2017-12-23T18:07:38.230Z,9.05
2017-12-23T18:10:05.762Z,8.23
2017-12-23T18:12:33.205Z,8.48
2017-12-23T18:15:00.664Z,9.20
2017-12-23T18:17:28.160Z,8.88
2017-12-23T18:19:55.928Z,8.50
2017-12-23T18:22:23.422Z,8.38
2017-12-23T18:24:50.900Z,8.40
2017-12-23T18:27:19.255Z,8.20
2017-12-23T18:29:46.741Z,9.02
2017-12-23T18:32:14.236Z,7.78
2017-12-23T18:34:41.748Z,8.18
2017-12-23T18:37:09.239Z,8.15
2017-12-23T18:39:36.804Z,8.18
2017-12-23T18:42:04.238Z,7.57
2017-12-23T18:44:31.728Z,7.82
2017-12-23T18:46:59.228Z,9.07
2017-12-23T18:49:26.722Z,7.90
2017-12-23T18:51:54.201Z,9.20
2017-12-23T18:54:21.680Z,8.27
2017-12-23T18:56:49.156Z,9.88
2017-12-23T18:59:16.610Z,8.48
2017-12-23T19:01:44.900Z,8.80
2017-12-23T19:04:12.393Z,7.75
2017-12-23T19:06:39.988Z,8.68
2017-12-23T19:09:07.420Z,8.15
2017-12-23T19:11:34.901Z,9.10
2017-12-23T19:14:03.145Z,8.25
2017-12-23T19:16:42.307Z,9.50
2017-12-23T19:19:09.793Z,9.05
2017-12-23T19:21:37.266Z,8.95
2017-12-23T19:24:04.745Z,8.07
2017-12-23T19:26:32.169Z,9.38
2017-12-23T19:28:59.664Z,9.50
2017-12-23T19:31:27.152Z,10.02
2017-12-23T19:33:54.645Z,12.43
2017-12-23T19:36:22.118Z,27.02
2017-12-23T19:38:49.601Z,10.73
2017-12-23T19:41:17.080Z,10.10
2017-12-23T19:43:44.499Z,10.60
2017-12-23T19:46:12.738Z,11.25
2017-12-23T19:48:40.268Z,11.10
2017-12-23T19:51:07.775Z,10.52
2017-12-23T19:53:35.302Z,11.65
2017-12-23T19:56:02.997Z,11.35
2017-12-23T19:58:30.491Z,10.45
2017-12-23T20:00:58.920Z,10.68
2017-12-23T20:03:26.471Z,10.52
2017-12-23T20:05:53.944Z,9.93
2017-12-23T20:08:22.185Z,9.27
2017-12-23T20:10:49.653Z,10.45
2017-12-23T20:13:17.911Z,10.25
2017-12-23T20:15:45.470Z,9.02
2017-12-23T20:18:13.040Z,10.18
2017-12-23T20:20:40.499Z,10.73
2017-12-23T20:23:08.019Z,10.40
2017-12-23T20:25:35.507Z,9.75
2017-12-23T20:28:02.991Z,10.95
2017-12-23T20:30:30.497Z,10.43
2017-12-23T20:32:57.981Z,9.40
2017-12-23T20:35:25.525Z,9.98
2017-12-23T20:37:53.066Z,11.00
2017-12-23T20:40:20.619Z,9.90
2017-12-23T20:42:48.091Z,9.20
2017-12-23T20:45:15.604Z,8.73
2017-12-23T20:47:43.863Z,8.48
2017-12-23T20:50:11.387Z,8.63
2017-12-23T20:52:39.622Z,9.32
2017-12-23T20:55:07.131Z,9.38
2017-12-23T20:57:34.607Z,9.45
2017-12-23T21:00:02.091Z,8.65
2017-12-23T21:02:30.326Z,8.70
2017-12-23T21:04:57.817Z,9.32
2017-12-23T21:07:25.280Z,8.77
2017-12-23T21:09:52.800Z,9.00
2017-12-23T21:12:20.351Z,8.95
2017-12-23T21:14:47.839Z,8.15
2017-12-23T21:17:15.480Z,7.82
2017-12-23T21:19:43.043Z,8.63
2017-12-23T21:22:10.482Z,8.45
2017-12-23T21:24:37.975Z,8.43
2017-12-23T21:27:05.475Z,8.52
2017-12-23T21:29:33.890Z,8.50
2017-12-23T21:32:01.367Z,8.85
2017-12-23T21:34:28.847Z,8.50
2017-12-23T21:36:56.364Z,8.68
2017-12-23T21:39:23.828Z,7.72
2017-12-23T21:41:52.110Z,8.30
2017-12-23T21:44:19.602Z,8.90
2017-12-23T21:46:47.104Z,9.50
2017-12-23T21:49:14.616Z,8.65
2017-12-23T21:51:42.159Z,9.25
2017-12-23T21:54:10.406Z,9.85
2017-12-23T21:56:37.924Z,9.07
2017-12-23T21:59:05.349Z,9.20
2017-12-23T22:01:32.836Z,9.90
2017-12-23T22:04:00.327Z,8.25
2017-12-23T22:06:27.799Z,9.80
2017-12-23T22:08:55.295Z,10.30
2017-12-23T22:11:23.533Z,8.80
2017-12-23T22:13:51.046Z,10.45
2017-12-23T22:16:18.472Z,10.88
2017-12-23T22:18:45.958Z,9.27
2017-12-23T22:21:13.569Z,10.40
2017-12-23T22:23:41.149Z,10.57
2017-12-23T22:26:08.637Z,10.13
2017-12-23T22:28:36.117Z,9.88
2017-12-23T22:31:03.597Z,9.30
2017-12-23T22:33:31.856Z,9.60
2017-12-23T22:36:00.112Z,9.48
2017-12-23T22:38:27.580Z,8.07
2017-12-23T22:40:55.064Z,9.88
2017-12-23T22:43:23.444Z,9.25
2017-12-23T22:45:51.037Z,10.35
2017-12-23T22:48:18.509Z,9.20
2017-12-23T22:50:45.981Z,9.27
2017-12-23T22:53:13.475Z,9.70
2017-12-23T22:55:40.988Z,10.10
2017-12-23T22:58:09.241Z,10.38
2017-12-23T23:00:36.732Z,9.43
2017-12-23T23:03:04.208Z,10.52
2017-12-23T23:05:31.635Z,9.55
2017-12-23T23:07:59.131Z,9.00
2017-12-23T23:10:27.369Z,8.75
2017-12-23T23:12:54.852Z,9.23
2017-12-23T23:15:22.349Z,8.95
2017-12-23T23:17:49.824Z,10.13
2017-12-23T23:20:18.057Z,9.57
2017-12-23T23:22:45.543Z,8.90
2017-12-23T23:25:13.149Z,10.43
2017-12-23T23:27:40.739Z,9.07
2017-12-23T23:30:08.207Z,9.45
2017-12-23T23:32:35.682Z,9.10
2017-12-23T23:35:03.100Z,8.82
2017-12-23T23:37:30.589Z,9.40
2017-12-23T23:39:58.106Z,9.07
2017-12-23T23:42:25.594Z,8.75
2017-12-23T23:44:53.129Z,9.73
2017-12-23T23:47:20.613Z,9.75
2017-12-23T23:49:48.045Z,9.73
2017-12-23T23:52:15.480Z,8.73
2017-12-23T23:54:43.959Z,9.02
2017-12-23T23:57:11.447Z,10.05
2017-12-23T23:59:38.965Z,9.48
